Etusivu
METAR-TAF:

METAR-TAF

Lentoasemat :

Falls International Airport

International Falls, Minnesota, Yhdysvallat

Leveyspiiri: 48-33-43N, Pituuspiiri: 093-23-52W, korkeus merenpinnasta: 361 m

Tämänhetkinen sää

Tämä raportti tehtiin 1 tunti ja 2 minuuttia sitten, kello 02.54 UTC
tyyntä
Lämpötila -26°C
Kosteus 83%
Ilmanpaine 1021 hPa
Näkyvyys: 16.1 km
selkeää

METAR: KINL 250254Z AUTO 00000KT 10SM CLR M26/M28 A3015 RMK AO2 SLP252 T12611283 50002

Aika: 21:56 (03:56 UTC)

Sääennuste

Tämä raportti tehtiin 4 tuntia ja 15 minuuttia sitten, kello 23.41 UTC
Ennuste voimassa 25. päivästä klo 00 UTC - 25. päivään klo 24 UTC
Tuuli 5 kn lännestä/luoteesta
Näkyvyys: 10 km
Muutamia pilviä 25000 ft:n korkeudessa
From 25. päivästä klo 0400 UTC
Tuuli 5 kn eri suunnista
Näkyvyys: 10 km
Hajonneita pilviä 6000 ft:n korkeudessa

TAF: KINL 242341Z 2500/2524 29005KT P6SM FEW250 FM250400 VRB05KT P6SM BKN060

Säähavainnot ja -ennusteet yli 4000 lentoasemalta (METAR- ja TAF-raportit).

Käytössä olevat sääasemat on merkitty karttaan keltaisilla ja punaisilla pisteillä.

Aseta hiiri pisteen päälle nähdäksesi sääaseman nimen.

Klikkaa sitten nähdäksesi säähavainnot ja -ennusteet.

Kartan vaihtaminen: klikkaa mustalla rastilla varustettuja vihreitä pisteitä, niin voit zoomata sisään; viivalla varustettua vihreää pistettä, niin voit zoomata ulos tai vihreitä nuolia, niin pääset viereisille kartoille.


METAR-TAF: